Time;durP1;ratioP1;P1;durP2;ratioP2;P2;SDS_P1;SDS_P2;PMS_P1;PMS_P2;Temp;Humidity;BMP_temperature;BMP_pressure;BME280_temperature;BME280_humidity;BME280_pressure;Samples;Min_cycle;Max_cycle;Signal;HPM_P1;HPM_P2
2022/07/28 00:00:59;;;;;;;3.40;1.25;;;;;;;19.45;44.79;101862.94;5093033;28;20102;-59
2022/07/28 00:03:26;;;;;;;4.28;1.65;;;;;;;19.43;44.74;101859.66;5098595;28;20075;-59
2022/07/28 00:05:54;;;;;;;3.50;1.13;;;;;;;19.43;44.67;101869.75;5098387;28;20102;-59
2022/07/28 00:08:22;;;;;;;2.78;1.05;;;;;;;19.43;44.88;101872.47;5095225;28;20052;-59
2022/07/28 00:10:50;;;;;;;5.15;1.40;;;;;;;19.42;44.75;101871.63;5096755;28;20071;-59
2022/07/28 00:13:18;;;;;;;3.80;1.15;;;;;;;19.41;44.86;101871.91;5088418;28;20068;-59
2022/07/28 00:15:46;;;;;;;3.25;1.30;;;;;;;19.40;44.83;101870.25;5103498;28;20078;-59
2022/07/28 00:18:16;;;;;;;5.07;1.42;;;;;;;19.24;44.76;101852.91;5098475;28;20108;-59
2022/07/28 00:20:44;;;;;;;5.53;1.50;;;;;;;19.39;44.61;101876.78;5103889;28;20076;-59
2022/07/28 00:23:11;;;;;;;1.92;1.15;;;;;;;19.38;44.67;101872.41;5094200;28;20071;-59
2022/07/28 00:25:39;;;;;;;3.22;1.33;;;;;;;19.38;45.03;101875.13;5102664;28;20540;-59
2022/07/28 00:28:07;;;;;;;2.80;1.70;;;;;;;19.36;44.74;101875.38;5101793;28;20048;-58
2022/07/28 00:30:35;;;;;;;4.65;1.50;;;;;;;19.36;44.78;101871.84;5093493;28;20052;-58
2022/07/28 00:33:03;;;;;;;2.42;1.30;;;;;;;19.34;44.71;101866.66;5100230;28;20044;-58
2022/07/28 00:35:33;;;;;;;2.22;1.10;;;;;;;19.32;44.82;101860.63;5094145;28;20077;-58
2022/07/28 00:38:00;;;;;;;3.88;1.40;;;;;;;19.32;44.90;101873.44;5100712;28;20055;-58
2022/07/28 00:43:10;;;;;;;3.92;1.33;;;;;;;19.29;44.82;101860.31;5091803;28;20052;-58
2022/07/28 00:45:38;;;;;;;4.65;1.40;;;;;;;19.28;45.02;101861.38;5096518;28;20071;-58
2022/07/28 00:48:06;;;;;;;5.72;1.63;;;;;;;19.27;44.92;101866.00;5106217;28;20052;-58
2022/07/28 00:50:36;;;;;;;4.07;1.38;;;;;;;19.23;44.83;101862.16;5108490;28;20084;-59
2022/07/28 00:53:03;;;;;;;2.85;1.10;;;;;;;19.08;45.04;101838.28;5102344;28;20055;-58
2022/07/28 00:55:31;;;;;;;3.95;1.33;;;;;;;19.12;44.92;101844.84;5098891;28;20067;-58
2022/07/28 00:58:19;;;;;;;3.10;1.13;;;;;;;19.21;44.94;101853.41;5097976;28;20116;-60
2022/07/28 01:00:47;;;;;;;4.50;1.55;;;;;;;19.19;44.99;101858.28;5095951;28;20056;-58
2022/07/28 01:03:15;;;;;;;4.97;1.20;;;;;;;19.19;45.11;101842.75;5094463;28;20040;-58
2022/07/28 01:05:52;;;;;;;3.05;1.35;;;;;;;19.17;45.08;101850.38;5099394;28;20052;-58
2022/07/28 01:08:27;;;;;;;3.15;1.35;;;;;;;19.16;45.10;101851.44;5091424;28;20473;-58
2022/07/28 01:11:04;;;;;;;3.42;1.10;;;;;;;19.15;45.25;101857.16;5092264;28;20055;-58
2022/07/28 01:13:42;;;;;;;5.55;1.63;;;;;;;19.12;45.07;101853.03;5093562;28;20044;-58
2022/07/28 01:16:11;;;;;;;5.38;1.70;;;;;;;19.13;45.15;101853.84;5105770;28;20143;-58
2022/07/28 01:18:45;;;;;;;3.95;1.33;;;;;;;19.11;45.10;101845.09;5102541;28;20047;-59
2022/07/28 01:21:21;;;;;;;2.58;1.33;;;;;;;19.10;45.10;101852.47;5098349;28;20049;-58
2022/07/28 01:24:09;;;;;;;3.85;1.20;;;;;;;19.08;45.28;101843.72;5100516;28;20121;-57
2022/07/28 01:26:51;;;;;;;4.10;1.52;;;;;;;19.06;45.37;101847.81;5095878;28;20040;-59
2022/07/28 01:29:31;;;;;;;3.83;1.38;;;;;;;19.03;45.30;101849.13;5093633;28;20070;-58
2022/07/28 01:32:05;;;;;;;2.33;1.23;;;;;;;18.80;45.44;101805.81;5106108;28;20083;-58
2022/07/28 01:34:38;;;;;;;3.83;1.40;;;;;;;19.01;45.24;101837.66;5104586;28;20080;-58
2022/07/28 01:37:10;;;;;;;3.28;1.25;;;;;;;19.00;45.33;101846.09;5100802;28;20098;-58
2022/07/28 01:39:41;;;;;;;2.42;1.38;;;;;;;18.98;45.45;101832.72;5100771;28;20056;-58
2022/07/28 01:42:12;;;;;;;4.18;1.25;;;;;;;18.98;45.37;101832.72;5101403;28;20087;-58
2022/07/28 01:44:44;;;;;;;3.85;1.40;;;;;;;18.97;45.40;101830.25;5103460;28;20092;-58
2022/07/28 01:47:14;;;;;;;4.03;1.13;;;;;;;18.96;45.26;101826.72;5096371;28;20075;-58
2022/07/28 01:49:45;;;;;;;6.05;1.40;;;;;;;18.96;45.44;101834.88;5101587;28;20056;-58
2022/07/28 01:52:15;;;;;;;2.30;1.20;;;;;;;18.95;45.40;101827.78;5104790;28;20052;-58
2022/07/28 01:54:45;;;;;;;2.60;1.30;;;;;;;18.95;45.43;101825.06;5095284;28;20112;-58
2022/07/28 01:57:16;;;;;;;5.65;1.75;;;;;;;18.85;45.28;101811.31;5105428;28;20047;-58
2022/07/28 01:59:46;;;;;;;3.67;1.45;;;;;;;18.95;45.48;101824.25;5102534;28;20071;-58
2022/07/28 02:02:18;;;;;;;6.93;1.33;;;;;;;18.95;45.33;101827.78;5101168;28;20082;-58
2022/07/28 02:04:48;;;;;;;6.10;1.60;;;;;;;18.93;45.36;101819.03;5094608;28;20084;-58
2022/07/28 02:07:18;;;;;;;1.88;1.27;;;;;;;18.93;45.42;101812.78;5103886;28;20048;-58
2022/07/28 02:09:47;;;;;;;4.30;1.20;;;;;;;18.92;45.34;101811.94;5107304;28;20055;-58
2022/07/28 02:12:18;;;;;;;4.00;1.58;;;;;;;18.92;45.33;101813.84;5096037;28;20063;-59
2022/07/28 02:14:48;;;;;;;4.82;1.75;;;;;;;18.91;45.36;101812.19;5098445;28;20044;-59
2022/07/28 02:17:21;;;;;;;4.25;1.48;;;;;;;18.91;45.32;101806.75;5099818;28;20072;-59
2022/07/28 02:19:50;;;;;;;2.72;1.20;;;;;;;18.90;45.48;101807.84;5102304;28;20087;-59
2022/07/28 02:22:18;;;;;;;5.82;2.05;;;;;;;18.89;45.31;101803.47;5098497;28;20125;-60
2022/07/28 02:24:47;;;;;;;5.07;1.17;;;;;;;18.88;45.16;101801.81;5104015;28;20040;-60
2022/07/28 02:27:21;;;;;;;3.28;1.40;;;;;;;18.87;45.31;101803.72;5105923;28;20145;-59
2022/07/28 02:30:02;;;;;;;4.97;1.13;;;;;;;18.86;45.28;101804.78;5102201;28;20051;-59
2022/07/28 02:32:39;;;;;;;3.05;1.25;;;;;;;18.83;45.28;101805.28;5103325;28;20059;-59
2022/07/28 02:35:11;;;;;;;3.95;1.40;;;;;;;18.83;45.39;101808.03;5102292;28;20044;-59
2022/07/28 02:37:45;;;;;;;2.67;1.15;;;;;;;18.82;45.43;101809.91;5101644;28;20067;-59
2022/07/28 02:40:15;;;;;;;4.07;1.48;;;;;;;18.82;45.41;101811.81;5093825;28;20106;-59
2022/07/28 02:42:46;;;;;;;2.80;1.42;;;;;;;18.80;45.38;101803.91;5099532;28;20373;-59
2022/07/28 02:45:16;;;;;;;2.08;1.42;;;;;;;18.78;45.42;101810.69;5105234;28;20508;-58
2022/07/28 02:47:51;;;;;;;6.55;1.35;;;;;;;18.76;45.37;101808.22;5102854;28;20074;-59
2022/07/28 02:50:23;;;;;;;3.75;1.33;;;;;;;18.59;45.43;101782.91;5095574;28;20075;-59
2022/07/28 02:52:52;;;;;;;4.07;1.48;;;;;;;18.73;45.36;101803.28;5105764;28;20532;-59
2022/07/28 02:55:21;;;;;;;5.30;1.90;;;;;;;18.73;45.47;101802.44;5093435;28;20068;-59
2022/07/28 02:57:50;;;;;;;3.08;1.30;;;;;;;18.71;45.45;101801.88;5099214;28;20094;-58
2022/07/28 03:00:24;;;;;;;4.10;1.20;;;;;;;18.70;45.41;101808.41;5100912;28;20054;-58
2022/07/28 03:02:55;;;;;;;2.83;1.40;;;;;;;18.68;45.42;101795.03;5097388;28;20052;-58
2022/07/28 03:05:23;;;;;;;2.35;1.25;;;;;;;18.66;45.49;101799.91;5098004;28;20421;-58
2022/07/28 03:07:52;;;;;;;3.85;1.40;;;;;;;18.65;45.48;101806.44;5102312;28;20055;-58
2022/07/28 03:10:22;;;;;;;2.95;1.15;;;;;;;18.64;45.50;101793.88;5097417;28;20063;-58
2022/07/28 03:13:02;;;;;;;4.60;1.55;;;;;;;18.62;45.58;101798.75;5101627;28;20120;-58
2022/07/28 03:15:31;;;;;;;2.30;1.20;;;;;;;18.61;45.35;101799.03;5100614;28;20052;-58
2022/07/28 03:18:01;;;;;;;3.65;1.42;;;;;;;18.60;45.53;101797.34;5114489;28;20114;-58
2022/07/28 03:20:29;;;;;;;3.78;1.40;;;;;;;18.58;45.33;101803.03;5096860;28;20048;-58
2022/07/28 03:22:58;;;;;;;3.55;1.50;;;;;;;18.57;45.46;101798.66;5097015;28;20072;-58
2022/07/28 03:25:29;;;;;;;3.10;1.05;;;;;;;18.55;45.49;101800.81;5102953;28;20055;-58
2022/07/28 03:27:59;;;;;;;2.15;1.20;;;;;;;18.52;45.61;101796.69;5102023;28;20056;-59
2022/07/28 03:30:31;;;;;;;4.38;1.60;;;;;;;18.50;45.59;101798.03;5100273;28;20097;-58
2022/07/28 03:33:02;;;;;;;4.00;1.73;;;;;;;18.49;45.77;101797.19;5099022;28;20044;-59
2022/07/28 03:35:31;;;;;;;4.00;2.17;;;;;;;18.48;45.63;101792.00;5104380;28;20153;-59
2022/07/28 03:38:05;;;;;;;2.50;1.30;;;;;;;18.44;45.44;101788.97;5111460;28;20075;-58
2022/07/28 03:40:36;;;;;;;3.15;1.85;;;;;;;18.46;45.72;101802.31;5098791;28;20052;-58
2022/07/28 03:43:07;;;;;;;6.65;2.05;;;;;;;18.43;45.87;101800.94;5103088;28;20068;-58
2022/07/28 03:45:35;;;;;;;3.55;1.40;;;;;;;18.42;45.63;101803.91;5097820;28;20052;-59
2022/07/28 03:48:08;;;;;;;2.85;1.63;;;;;;;18.40;45.81;101800.59;5097057;28;20044;-58
2022/07/28 03:50:36;;;;;;;5.15;1.42;;;;;;;18.38;45.85;101800.03;5092911;28;20071;-58
2022/07/28 03:53:13;;;;;;;3.05;1.40;;;;;;;18.35;45.91;101797.81;5097824;28;20044;-58
2022/07/28 03:55:41;;;;;;;3.58;1.67;;;;;;;18.35;45.85;101795.09;5098619;28;20082;-59
2022/07/28 03:58:09;;;;;;;2.33;1.02;;;;;;;18.33;46.09;101800.78;5101808;28;20090;-58
2022/07/28 04:00:36;;;;;;;5.00;1.33;;;;;;;18.33;46.03;101797.25;5103247;28;20094;-59
2022/07/28 04:03:04;;;;;;;5.65;1.50;;;;;;;18.12;45.84;101767.00;5097594;28;20079;-59
2022/07/28 04:05:56;;;;;;;3.95;1.70;;;;;;;18.31;46.04;101797.50;5108475;28;20045;-59
2022/07/28 04:08:24;;;;;;;5.15;1.90;;;;;;;18.30;45.96;101800.47;5100413;28;20070;-59
2022/07/28 04:10:52;;;;;;;2.88;1.35;;;;;;;18.29;45.92;101799.63;5102030;28;20393;-59
2022/07/28 04:13:20;;;;;;;2.80;1.38;;;;;;;18.26;46.02;101791.16;5100572;28;20055;-59
2022/07/28 04:15:48;;;;;;;4.95;1.52;;;;;;;18.27;46.07;101809.94;5106975;28;20488;-59
2022/07/28 04:18:17;;;;;;;3.25;1.70;;;;;;;18.24;45.96;101799.56;5097395;28;20075;-59
2022/07/28 04:20:45;;;;;;;4.30;1.63;;;;;;;18.25;46.09;101809.38;5107304;28;20055;-59
2022/07/28 04:23:14;;;;;;;3.45;1.42;;;;;;;18.24;46.06;101807.72;5098275;28;20174;-59
2022/07/28 04:25:42;;;;;;;5.75;2.10;;;;;;;18.23;46.12;101800.63;5096216;28;20078;-59
2022/07/28 04:28:10;;;;;;;3.85;1.30;;;;;;;18.20;46.13;101796.50;5100776;28;20091;-59
2022/07/28 04:30:37;;;;;;;7.15;1.60;;;;;;;18.19;46.05;101797.59;5097243;28;20051;-59
2022/07/28 04:33:11;;;;;;;3.92;1.70;;;;;;;18.18;46.33;101798.66;5103001;28;20135;-59
2022/07/28 04:35:39;;;;;;;1.98;1.45;;;;;;;18.18;46.11;101797.84;5103253;28;20051;-59
2022/07/28 04:38:07;;;;;;;4.32;1.60;;;;;;;18.16;46.28;101795.38;5091123;28;20047;-59
2022/07/28 04:40:37;;;;;;;3.05;1.40;;;;;;;18.16;46.37;101794.53;5098542;28;20059;-60
2022/07/28 04:43:05;;;;;;;3.40;1.60;;;;;;;18.15;46.29;101792.88;5103419;28;20052;-58
2022/07/28 04:45:33;;;;;;;2.33;1.45;;;;;;;18.16;46.33;101795.38;5102974;28;20082;-58
2022/07/28 04:48:01;;;;;;;4.07;1.58;;;;;;;18.15;46.20;101799.16;5096074;28;20112;-59
2022/07/28 04:50:29;;;;;;;3.38;1.35;;;;;;;18.15;46.31;101793.72;5093583;28;20049;-59
2022/07/28 04:52:57;;;;;;;3.72;1.60;;;;;;;18.14;46.26;101796.69;5102544;28;20052;-59
2022/07/28 04:55:25;;;;;;;4.68;1.55;;;;;;;18.12;46.36;101798.81;5097293;28;20056;-60
2022/07/28 04:57:54;;;;;;;3.00;1.60;;;;;;;18.09;46.38;101797.44;5093011;28;20078;-60
2022/07/28 05:00:22;;;;;;;4.28;1.92;;;;;;;18.08;46.45;101800.41;5096967;28;20052;-59
2022/07/28 05:02:51;;;;;;;5.00;1.60;;;;;;;18.05;46.28;101798.19;5105174;28;20051;-60
2022/07/28 05:05:19;;;;;;;3.78;1.35;;;;;;;18.05;46.54;101796.28;5101109;28;20390;-60
2022/07/28 05:07:46;;;;;;;5.10;1.80;;;;;;;18.03;46.55;101797.59;5092530;28;20395;-60
2022/07/28 05:10:14;;;;;;;9.27;1.55;;;;;;;17.99;46.54;101796.44;5098913;28;20056;-60
2022/07/28 05:12:44;;;;;;;5.50;1.60;;;;;;;18.00;46.61;101809.81;5107783;28;20059;-61
2022/07/28 05:15:13;;;;;;;7.03;2.05;;;;;;;18.00;46.73;101806.25;5097617;28;20093;-60
2022/07/28 05:17:41;;;;;;;4.00;1.58;;;;;;;18.00;46.74;101800.81;5103994;28;20048;-61
2022/07/28 05:20:12;;;;;;;5.53;1.55;;;;;;;18.01;46.79;101807.91;5104639;28;20811;-60
2022/07/28 05:22:44;;;;;;;6.63;1.42;;;;;;;18.00;46.80;101798.09;5099606;28;20044;-60
2022/07/28 05:25:17;;;;;;;2.65;1.30;;;;;;;18.01;46.83;101800.56;5087936;28;20088;-59
2022/07/28 05:27:45;;;;;;;4.97;1.77;;;;;;;18.03;46.73;101800.31;5088710;28;20119;-58
2022/07/28 05:30:15;;;;;;;3.00;1.60;;;;;;;18.04;46.79;101805.50;5099822;28;20055;-59
2022/07/28 05:32:44;;;;;;;3.20;1.70;;;;;;;18.01;46.88;101808.72;5105065;28;20101;-58
2022/07/28 05:35:12;;;;;;;5.15;1.60;;;;;;;18.03;46.73;101811.19;5095522;28;20096;-58
2022/07/28 05:37:40;;;;;;;4.95;1.73;;;;;;;18.01;46.87;101800.56;5102104;28;20044;-58
2022/07/28 05:40:12;;;;;;;4.20;2.28;;;;;;;18.03;46.62;101800.31;5097950;28;20113;-58
2022/07/28 05:42:41;;;;;;;4.17;1.47;;;;;;;18.03;46.90;101808.47;4736270;28;10000508;-58
2022/07/28 05:45:10;;;;;;;7.28;1.70;;;;;;;18.03;46.87;101808.47;5097589;28;20759;-58
2022/07/28 05:47:47;;;;;;;2.63;1.70;;;;;;;18.02;46.92;101806.84;5093466;28;20052;-58
2022/07/28 05:50:17;;;;;;;8.48;2.00;;;;;;;18.02;46.72;101799.50;5090814;28;20082;-57
2022/07/28 05:52:45;;;;;;;3.83;1.45;;;;;;;18.02;46.82;101809.56;5093278;28;20101;-57
2022/07/28 05:55:14;;;;;;;3.92;1.67;;;;;;;18.01;46.87;101810.63;5092245;28;20493;-57
2022/07/28 05:57:42;;;;;;;5.68;1.83;;;;;;;18.01;46.85;101813.34;5091376;28;20083;-57
2022/07/28 06:00:12;;;;;;;4.63;2.00;;;;;;;18.02;46.81;101818.53;5087017;28;20086;-57
2022/07/28 06:02:41;;;;;;;3.25;1.33;;;;;;;18.00;47.04;101809.81;5096799;28;20622;-58
2022/07/28 06:05:11;;;;;;;4.78;1.85;;;;;;;17.99;47.11;101808.16;5104296;28;20095;-58
2022/07/28 06:07:38;;;;;;;4.28;1.75;;;;;;;17.99;47.29;101802.72;5094423;28;20079;-58
2022/07/28 06:10:10;;;;;;;7.72;1.67;;;;;;;17.98;47.24;101801.06;5092993;28;20046;-59
2022/07/28 06:12:42;;;;;;;8.45;2.33;;;;;;;17.98;47.31;101801.06;5101587;28;20044;-60
2022/07/28 06:15:13;;;;;;;3.10;1.48;;;;;;;17.97;47.32;101801.31;5097931;28;20047;-60
2022/07/28 06:17:41;;;;;;;2.92;1.70;;;;;;;17.98;47.44;101795.63;5093922;28;20048;-59
2022/07/28 06:20:12;;;;;;;3.40;1.33;;;;;;;17.98;47.35;101792.09;5105653;28;20048;-60
2022/07/28 06:22:44;;;;;;;10.25;1.70;;;;;;;18.00;47.43;101798.09;5104709;28;20055;-60
2022/07/28 06:25:13;;;;;;;5.72;1.83;;;;;;;18.00;47.38;101796.19;5107650;28;20086;-60
2022/07/28 06:27:41;;;;;;;4.22;1.65;;;;;;;18.01;47.54;101795.13;5106057;28;20044;-59
2022/07/28 06:30:10;;;;;;;2.92;1.40;;;;;;;18.01;47.47;101799.75;5095854;28;20044;-59
2022/07/28 06:32:38;;;;;;;5.60;2.35;;;;;;;18.02;47.35;101791.34;5107344;28;20052;-59
2022/07/28 06:35:07;;;;;;;3.88;1.58;;;;;;;18.02;47.35;101804.94;5107624;28;20056;-60
2022/07/28 06:37:36;;;;;;;6.95;1.85;;;;;;;18.02;47.33;101804.94;5106090;28;20042;-60
2022/07/28 06:40:06;;;;;;;4.68;1.50;;;;;;;18.03;47.33;101798.41;5097415;28;20048;-60
2022/07/28 06:42:34;;;;;;;3.42;1.60;;;;;;;18.04;47.39;101800.06;5103524;28;20056;-60
2022/07/28 06:45:01;;;;;;;6.50;2.35;;;;;;;17.90;47.42;101771.56;5101858;28;20122;-60
2022/07/28 06:47:29;;;;;;;2.70;1.40;;;;;;;18.05;47.43;101798.19;5105546;28;20075;-61
2022/07/28 06:49:57;;;;;;;4.03;1.40;;;;;;;18.04;47.39;101799.25;5112362;28;20078;-60
2022/07/28 06:52:26;;;;;;;5.88;1.58;;;;;;;18.07;47.27;101801.47;5100744;28;20070;-60
2022/07/28 06:54:55;;;;;;;2.80;1.25;;;;;;;18.07;47.30;101798.75;5106950;28;20044;-60
2022/07/28 06:57:26;;;;;;;2.65;1.38;;;;;;;18.07;47.34;101806.91;5086988;28;20040;-60
2022/07/28 07:00:01;;;;;;;4.35;2.05;;;;;;;18.09;47.45;101807.50;5102024;28;20054;-61
2022/07/28 07:02:29;;;;;;;4.60;2.00;;;;;;;18.10;47.38;101809.97;5102309;28;20044;-60
2022/07/28 07:04:57;;;;;;;4.88;1.75;;;;;;;18.00;47.58;101789.94;5106925;28;20067;-60
2022/07/28 07:07:25;;;;;;;3.97;1.27;;;;;;;18.12;47.47;101804.28;5099913;28;20055;-59
2022/07/28 07:09:52;;;;;;;5.57;1.42;;;;;;;17.89;47.43;101769.91;5107170;28;20169;-60
2022/07/28 07:12:22;;;;;;;5.72;1.10;;;;;;;18.13;47.41;101806.75;5104263;28;20048;-60
2022/07/28 07:14:50;;;;;;;5.13;1.30;;;;;;;18.13;47.53;101814.91;5101027;28;20060;-60
2022/07/28 07:17:17;;;;;;;6.32;1.70;;;;;;;18.15;47.40;101803.78;5104304;28;20063;-60
2022/07/28 07:19:45;;;;;;;3.67;1.77;;;;;;;18.17;47.67;101812.50;5103365;28;20044;-60
2022/07/28 07:22:13;;;;;;;5.13;1.35;;;;;;;18.17;47.64;101816.06;5102971;28;20053;-60
2022/07/28 07:24:41;;;;;;;2.25;1.35;;;;;;;18.15;47.58;101801.88;5101670;28;20055;-60
2022/07/28 07:27:09;;;;;;;3.10;1.20;;;;;;;18.22;47.64;101812.59;5105741;28;20134;-60
2022/07/28 07:29:38;;;;;;;4.63;1.35;;;;;;;18.23;47.52;101806.06;5105629;28;20084;-60
2022/07/28 07:32:06;;;;;;;4.18;1.63;;;;;;;18.27;47.44;101809.13;5095576;28;20155;-60
2022/07/28 07:34:38;;;;;;;3.30;1.30;;;;;;;18.29;47.45;101798.81;5105297;28;20051;-61
2022/07/28 07:37:10;;;;;;;5.28;1.98;;;;;;;18.31;47.37;101797.50;5104889;28;20040;-60
2022/07/28 07:39:39;;;;;;;6.35;1.35;;;;;;;18.33;47.48;101802.69;5098137;28;20056;-60
2022/07/28 07:42:07;;;;;;;2.00;1.00;;;;;;;18.36;47.43;101799.47;5094996;28;20078;-60
2022/07/28 07:44:35;;;;;;;3.67;1.45;;;;;;;18.40;47.44;101797.88;5104975;28;20044;-61
2022/07/28 07:47:04;;;;;;;4.97;1.23;;;;;;;18.42;47.51;101791.13;5091016;28;20072;-61
2022/07/28 07:49:32;;;;;;;4.05;1.20;;;;;;;18.45;47.47;101795.22;5104556;28;20075;-61
2022/07/28 07:52:12;;;;;;;6.40;1.75;;;;;;;18.31;47.53;101764.81;5104465;28;20130;-61
2022/07/28 07:54:40;;;;;;;3.63;1.08;;;;;;;18.47;47.58;101799.34;5095970;28;20044;-61
2022/07/28 07:57:08;;;;;;;8.27;1.98;;;;;;;18.48;47.50;101790.09;5102459;28;20109;-61
2022/07/28 07:59:36;;;;;;;5.63;1.40;;;;;;;18.49;47.50;101785.50;5102628;28;20052;-61
2022/07/28 08:02:06;;;;;;;6.30;2.42;;;;;;;18.50;47.63;101781.69;5099668;28;20040;-61
2022/07/28 08:04:34;;;;;;;5.18;1.38;;;;;;;18.51;47.78;101792.31;5101141;28;20182;-61
2022/07/28 08:07:05;;;;;;;2.65;1.50;;;;;;;18.51;47.70;101791.50;5102450;28;20082;-61
2022/07/28 08:09:33;;;;;;;7.05;1.42;;;;;;;18.51;47.76;101778.72;5101027;28;20044;-61
2022/07/28 08:12:01;;;;;;;3.53;1.30;;;;;;;18.53;47.61;101773.03;5101743;28;20062;-61
2022/07/28 08:14:29;;;;;;;3.78;1.60;;;;;;;18.57;47.82;101776.88;5103174;28;20044;-61
2022/07/28 08:16:58;;;;;;;5.88;1.40;;;;;;;18.51;47.74;101759.66;5095900;28;20043;-61
2022/07/28 08:19:27;;;;;;;4.25;1.38;;;;;;;18.62;47.92;101776.16;5095589;28;20036;-60
2022/07/28 08:21:55;;;;;;;4.53;1.52;;;;;;;18.64;47.81;101779.44;5105258;28;20048;-59
2022/07/28 08:24:23;;;;;;;3.85;1.25;;;;;;;18.65;47.69;101771.03;5100825;28;20040;-60
2022/07/28 08:27:00;;;;;;;4.95;1.30;;;;;;;18.67;47.91;101766.16;5102600;28;20083;-60
2022/07/28 08:29:28;;;;;;;2.70;1.10;;;;;;;18.69;47.85;101769.44;5104821;28;20070;-60
2022/07/28 08:31:56;;;;;;;5.45;1.60;;;;;;;18.70;47.93;101770.28;5102430;28;20044;-60
2022/07/28 08:34:24;;;;;;;4.82;1.65;;;;;;;18.71;47.93;101761.84;5104028;28;20056;-60
2022/07/28 08:37:03;;;;;;;2.30;1.10;;;;;;;18.74;47.85;101779.59;5105192;28;20074;-60
2022/07/28 08:39:32;;;;;;;5.70;1.25;;;;;;;18.78;48.01;101772.56;5100259;28;20045;-60
2022/07/28 08:42:06;;;;;;;3.25;2.08;;;;;;;18.77;48.07;101763.56;5105166;28;20520;-60
2022/07/28 08:44:45;;;;;;;5.15;1.52;;;;;;;18.83;48.24;101767.16;5102874;28;20071;-60
2022/07/28 08:47:15;;;;;;;4.13;1.48;;;;;;;18.85;48.10;101774.00;5105273;28;20047;-59
2022/07/28 08:49:43;;;;;;;5.93;1.70;;;;;;;18.89;48.21;101773.50;5099714;28;20050;-59
2022/07/28 08:52:14;;;;;;;6.43;1.33;;;;;;;18.78;48.19;101759.75;5104857;28;20048;-60
2022/07/28 08:54:44;;;;;;;6.70;1.55;;;;;;;18.93;48.13;101774.63;5100901;28;20094;-61
2022/07/28 08:57:16;;;;;;;4.35;1.30;;;;;;;18.96;47.92;101782.28;5093407;28;20053;-60
2022/07/28 08:59:46;;;;;;;5.82;1.23;;;;;;;18.99;48.14;101773.63;5101694;28;20043;-60
2022/07/28 09:02:15;;;;;;;7.95;1.20;;;;;;;19.01;48.13;101768.72;5099673;28;20379;-62
2022/07/28 09:04:45;;;;;;;5.55;1.30;;;;;;;18.96;48.06;101746.88;5099824;28;20084;-62
2022/07/28 09:07:15;;;;;;;2.67;1.15;;;;;;;19.03;48.05;101750.22;5099137;28;20161;-62
2022/07/28 09:09:44;;;;;;;3.60;1.38;;;;;;;18.93;48.24;101728.31;5090972;28;20047;-61
2022/07/28 09:12:12;;;;;;;3.67;1.10;;;;;;;18.96;48.36;101728.63;5100844;28;20386;-62
2022/07/28 09:14:40;;;;;;;5.75;1.55;;;;;;;19.12;48.10;101737.75;5101498;28;20134;-62
2022/07/28 09:17:08;;;;;;;3.65;1.13;;;;;;;19.14;48.21;101739.16;5104929;28;20071;-62
2022/07/28 09:19:36;;;;;;;4.32;1.20;;;;;;;19.17;48.33;101741.34;5102546;28;20036;-61
2022/07/28 09:22:08;;;;;;;4.07;1.50;;;;;;;19.18;48.29;101734.00;5098955;28;20044;-62
2022/07/28 09:24:41;;;;;;;4.95;1.75;;;;;;;19.20;48.03;101742.75;5102890;28;20318;-63
2022/07/28 09:27:10;;;;;;;6.53;1.48;;;;;;;19.21;47.91;101733.50;5095638;28;20162;-61
2022/07/28 09:29:40;;;;;;;2.85;1.63;;;;;;;19.23;47.82;101725.06;5093201;28;20083;-62
2022/07/28 09:32:08;;;;;;;5.15;1.40;;;;;;;19.23;47.83;101720.44;5104024;28;20052;-62
2022/07/28 09:34:41;;;;;;;4.78;1.77;;;;;;;19.25;47.82;101723.72;5102696;28;20051;-62
2022/07/28 09:37:17;;;;;;;5.57;1.60;;;;;;;19.27;47.79;101721.56;5104628;28;20056;-62
2022/07/28 09:39:57;;;;;;;2.28;1.42;;;;;;;19.30;47.76;101728.41;5086526;28;20045;-63
2022/07/28 09:42:26;;;;;;;3.08;1.30;;;;;;;19.31;47.66;101719.13;5089741;28;20130;-62
2022/07/28 09:45:04;;;;;;;3.70;1.70;;;;;;;19.33;47.79;101708.78;5101746;28;20086;-62
2022/07/28 09:48:08;;;;;;;5.38;1.65;;;;;;;19.34;47.61;101713.16;5094204;28;20051;-62
2022/07/28 09:50:37;;;;;;;5.93;1.63;;;;;;;19.32;47.60;101712.59;5103512;28;20081;-62
2022/07/28 09:53:20;;;;;;;4.55;1.00;;;;;;;19.28;47.44;101695.94;5102004;28;20079;-62
2022/07/28 09:55:59;;;;;;;3.95;1.35;;;;;;;19.40;47.59;101717.59;5101795;28;20090;-63
2022/07/28 09:58:28;;;;;;;2.50;1.33;;;;;;;19.44;47.60;101713.25;5097628;28;20158;-63
2022/07/28 10:01:08;;;;;;;6.78;1.52;;;;;;;19.49;47.83;101707.84;5094783;28;20056;-63
2022/07/28 10:03:39;;;;;;;3.95;1.27;;;;;;;19.52;47.83;101712.00;5106550;28;20059;-63
2022/07/28 10:06:08;;;;;;;3.97;1.15;;;;;;;19.54;47.59;101716.09;5107393;28;20051;-61
2022/07/28 10:08:43;;;;;;;4.60;1.58;;;;;;;19.57;47.44;101709.31;5101744;28;20098;-62
2022/07/28 10:11:14;;;;;;;4.20;1.35;;;;;;;19.60;47.71;101706.06;5088327;28;20048;-61
2022/07/28 10:13:59;;;;;;;2.70;1.35;;;;;;;19.65;47.74;101711.53;5100668;28;20048;-62
2022/07/28 10:16:28;;;;;;;6.05;1.52;;;;;;;19.68;47.84;101705.56;5102838;28;20137;-62
2022/07/28 10:18:58;;;;;;;4.47;1.45;;;;;;;19.71;47.93;101705.03;5097316;28;20052;-63
2022/07/28 10:21:27;;;;;;;4.03;1.30;;;;;;;19.72;47.62;101706.69;5106613;28;20052;-62
2022/07/28 10:23:56;;;;;;;4.47;1.45;;;;;;;19.75;47.46;101696.06;5107317;28;20060;-62
2022/07/28 10:26:31;;;;;;;4.43;1.85;;;;;;;19.59;47.51;101667.06;5105089;28;20051;-63
2022/07/28 10:29:04;;;;;;;5.63;1.30;;;;;;;19.80;47.55;101695.28;5100913;28;20045;-63
2022/07/28 10:31:40;;;;;;;4.05;1.15;;;;;;;19.80;47.28;101703.47;5099620;28;20047;-63
2022/07/28 10:34:13;;;;;;;4.05;1.10;;;;;;;19.85;47.45;101698.06;5106421;28;20044;-63
2022/07/28 10:36:44;;;;;;;4.03;1.10;;;;;;;19.90;47.62;101689.06;5104256;28;20054;-63
2022/07/28 10:39:15;;;;;;;6.28;2.30;;;;;;;19.96;47.45;101697.03;5103285;28;20087;-63
2022/07/28 10:41:45;;;;;;;4.90;1.58;;;;;;;20.03;47.72;101681.25;5106124;28;20087;-63
2022/07/28 10:44:13;;;;;;;4.78;1.30;;;;;;;20.09;47.52;101693.00;5103936;28;20079;-62
2022/07/28 10:46:47;;;;;;;3.33;1.10;;;;;;;20.10;47.26;101692.75;5101190;28;20059;-62
2022/07/28 10:49:15;;;;;;;2.05;1.20;;;;;;;20.15;47.25;101691.94;5101859;28;20052;-63
2022/07/28 10:51:47;;;;;;;3.58;1.23;;;;;;;20.17;47.05;101692.50;5106592;28;20111;-61
2022/07/28 10:54:38;;;;;;;6.78;1.10;;;;;;;20.20;47.24;101689.25;5097765;28;20048;-62
2022/07/28 10:57:12;;;;;;;5.88;1.60;;;;;;;20.24;47.11;101686.81;5098447;28;20048;-62
2022/07/28 11:00:07;;;;;;;9.15;2.28;;;;;;;20.28;46.91;101677.81;5099329;28;20067;-62
2022/07/28 11:02:51;;;;;;;4.00;1.60;;;;;;;20.28;46.43;101672.38;5094192;28;20052;-62
2022/07/28 11:05:26;;;;;;;4.47;1.38;;;;;;;20.32;46.77;101681.66;5103917;28;20044;-62
2022/07/28 11:07:55;;;;;;;5.72;1.85;;;;;;;20.37;46.94;101678.13;5099076;28;20040;-62
2022/07/28 11:10:23;;;;;;;3.97;1.25;;;;;;;20.45;46.90;101673.00;5106039;28;20069;-61
2022/07/28 11:12:54;;;;;;;3.10;1.10;;;;;;;20.52;46.86;101672.75;5094049;28;20257;-62
2022/07/28 11:15:31;;;;;;;4.43;1.40;;;;;;;20.59;46.76;101662.41;5103241;28;20078;-62
2022/07/28 11:18:07;;;;;;;3.78;1.10;;;;;;;20.65;46.55;101658.59;5106711;28;20044;-62
2022/07/28 11:20:55;;;;;;;;;;;;;;;20.69;46.46;101661.59;5105655;28;20081;-62
2022/07/28 11:23:42;;;;;;;7.38;1.58;;;;;;;20.58;46.14;101633.44;5105385;28;19944;-62
2022/07/28 11:26:40;;;;;;;5.50;1.20;;;;;;;20.73;46.01;101652.59;5097772;28;20089;-62
2022/07/28 11:29:17;;;;;;;4.78;1.80;;;;;;;20.78;46.28;101660.00;5095636;28;20116;-62
2022/07/28 11:32:05;;;;;;;3.28;0.90;;;;;;;20.83;46.51;101651.78;5106507;28;20067;-62
2022/07/28 11:35:07;;;;;;;2.70;1.20;;;;;;;20.91;46.30;101648.50;5096524;28;20071;-62
2022/07/28 11:38:07;;;;;;;4.30;1.23;;;;;;;20.92;44.88;101639.22;5043164;28;20064;-62
2022/07/28 11:40:37;;;;;;;4.18;1.48;;;;;;;20.91;45.13;101632.09;5047373;28;20050;-62
2022/07/28 11:43:41;;;;;;;6.88;1.63;;;;;;;20.92;44.04;101627.47;5042327;28;20049;-62
2022/07/28 11:46:35;;;;;;;2.47;1.10;;;;;;;20.94;44.55;101619.81;5044062;28;20049;-62